Time,TemperatureF,DewpointF,PressureIn,WindDirection,WindDirectionDegrees,WindSpeedMPH,WindSpeedGustMPH,Humidity,HourlyPrecipIn,Conditions,Clouds,dailyrainin,SolarRadiationWatts/m^2,SoftwareType,DateUTC
2013-03-28 00:04:00,37.3,29.1,30.02,WNW,286,0.0,0.0,72,0.00,,,0.00,0,Wunderground v.1.15,2013-03-28 06:04:00,
2013-03-28 00:10:00,36.8,29.9,30.02,WNW,286,0.0,0.0,76,0.00,,,0.00,0,Wunderground v.1.15,2013-03-28 06:10:00,
2013-03-28 00:16:00,36.4,29.6,30.02,WNW,286,0.0,0.0,76,0.00,,,0.00,0,Wunderground v.1.15,2013-03-28 06:16:00,
2013-03-28 00:22:00,36.0,29.2,30.02,WNW,286,0.0,0.0,76,0.00,,,0.00,0,Wunderground v.1.15,2013-03-28 06:22:00,
2013-03-28 00:32:00,35.4,28.9,30.02,WNW,286,0.0,0.0,77,0.00,,,0.00,0,Wunderground v.1.15,2013-03-28 06:32:00,
2013-03-28 00:38:00,35.1,28.9,30.02,WNW,286,0.0,0.0,78,0.00,,,0.00,0,Wunderground v.1.15,2013-03-28 06:38:00,
2013-03-28 00:44:00,34.9,29.0,30.02,WNW,286,0.0,0.0,79,0.00,,,0.00,0,Wunderground v.1.15,2013-03-28 06:44:00,
2013-03-28 00:50:00,34.7,28.9,30.02,WNW,286,0.0,0.0,79,0.00,,,0.00,0,Wunderground v.1.15,2013-03-28 06:50:00,
2013-03-28 00:56:00,34.5,28.7,30.03,WNW,286,0.0,0.0,79,0.00,,,0.00,0,Wunderground v.1.15,2013-03-28 06:56:00,
2013-03-28 01:02:00,34.2,28.4,30.03,WNW,286,0.0,0.0,79,0.00,,,0.00,0,Wunderground v.1.15,2013-03-28 07:02:00,
2013-03-28 01:10:00,33.7,27.6,30.03,WNW,286,0.0,0.0,78,0.00,,,0.00,0,Wunderground v.1.15,2013-03-28 07:10:00,
2013-03-28 01:16:00,33.2,27.1,30.03,WNW,285,0.0,0.0,78,0.00,,,0.00,0,Wunderground v.1.15,2013-03-28 07:16:00,
2013-03-28 01:22:00,32.8,27.0,30.03,WNW,284,0.0,0.0,79,0.00,,,0.00,0,Wunderground v.1.15,2013-03-28 07:22:00,
2013-03-28 01:28:00,32.5,27.0,30.03,WNW,283,0.0,0.0,80,0.00,,,0.00,0,Wunderground v.1.15,2013-03-28 07:28:00,
2013-03-28 01:34:00,32.2,26.7,30.02,WNW,283,0.0,0.0,80,0.00,,,0.00,0,Wunderground v.1.15,2013-03-28 07:34:00,
2013-03-28 01:40:00,31.9,26.1,30.02,WNW,283,0.0,0.0,79,0.00,,,0.00,0,Wunderground v.1.15,2013-03-28 07:40:00,
2013-03-28 01:46:00,31.7,26.5,30.02,WNW,283,0.0,0.0,81,0.00,,,0.00,0,Wunderground v.1.15,2013-03-28 07:46:00,
2013-03-28 02:00:00,31.4,26.2,30.03,WNW,282,0.0,0.0,81,0.00,,,0.00,0,Wunderground v.1.15,2013-03-28 08:00:00,
2013-03-28 02:06:00,31.2,26.6,30.03,SE,126,0.0,4.0,83,0.00,,,0.00,0,Wunderground v.1.15,2013-03-28 08:06:00,
2013-03-28 02:12:00,31.2,26.9,30.02,SE,128,3.0,4.0,84,0.00,,,0.00,0,Wunderground v.1.15,2013-03-28 08:12:00,
2013-03-28 02:20:00,31.0,26.4,30.03,SE,130,2.0,2.0,83,0.00,,,0.00,0,Wunderground v.1.15,2013-03-28 08:20:00,
2013-03-28 02:26:00,30.8,26.2,30.02,SE,139,1.0,4.0,83,0.00,,,0.00,0,Wunderground v.1.15,2013-03-28 08:26:00,
2013-03-28 02:34:00,30.6,26.1,30.02,SE,140,2.0,2.0,83,0.00,,,0.00,0,Wunderground v.1.15,2013-03-28 08:34:00,
2013-03-28 02:40:00,30.2,25.1,30.03,SE,140,0.0,0.0,81,0.00,,,0.00,0,Wunderground v.1.15,2013-03-28 08:40:00,
2013-03-28 02:46:00,29.7,24.3,30.02,SE,140,0.0,0.0,80,0.00,,,0.00,0,Wunderground v.1.15,2013-03-28 08:46:00,
2013-03-28 02:52:00,29.2,24.1,30.03,SE,140,0.0,0.0,81,0.00,,,0.00,0,Wunderground v.1.15,2013-03-28 08:52:00,
2013-03-28 03:00:00,28.7,23.9,30.02,SE,140,0.0,0.0,82,0.00,,,0.00,0,Wunderground v.1.15,2013-03-28 09:00:00,
2013-03-28 03:06:00,28.3,23.5,30.02,SE,140,0.0,0.0,82,0.00,,,0.00,0,Wunderground v.1.15,2013-03-28 09:06:00,
2013-03-28 03:12:00,28.0,23.8,30.02,SE,140,0.0,0.0,84,0.00,,,0.00,0,Wunderground v.1.15,2013-03-28 09:12:00,
2013-03-28 03:18:00,27.9,24.0,30.02,SE,140,0.0,0.0,85,0.00,,,0.00,0,Wunderground v.1.15,2013-03-28 09:18:00,
2013-03-28 03:24:00,27.9,24.5,30.02,SE,140,0.0,0.0,87,0.00,,,0.00,0,Wunderground v.1.15,2013-03-28 09:24:00,
2013-03-28 03:30:00,28.3,25.2,30.02,SE,140,0.0,0.0,88,0.00,,,0.00,0,Wunderground v.1.15,2013-03-28 09:30:00,
2013-03-28 03:36:00,28.6,25.5,30.02,SE,140,0.0,0.0,88,0.00,,,0.00,0,Wunderground v.1.15,2013-03-28 09:36:00,
2013-03-28 03:42:00,28.7,25.6,30.02,SE,140,0.0,0.0,88,0.00,,,0.00,0,Wunderground v.1.15,2013-03-28 09:42:00,
2013-03-28 03:48:00,28.7,25.6,30.02,SE,140,0.0,0.0,88,0.00,,,0.00,0,Wunderground v.1.15,2013-03-28 09:48:00,
2013-03-28 03:54:00,28.7,25.6,30.02,SE,140,0.0,0.0,88,0.00,,,0.00,0,Wunderground v.1.15,2013-03-28 09:54:00,
2013-03-28 04:00:00,28.5,25.1,30.02,SE,140,0.0,0.0,87,0.00,,,0.00,0,Wunderground v.1.15,2013-03-28 10:00:00,
2013-03-28 04:06:00,28.4,25.0,30.02,SE,140,0.0,0.0,87,0.00,,,0.00,0,Wunderground v.1.15,2013-03-28 10:06:00,
2013-03-28 04:12:00,28.3,24.9,30.02,SE,140,0.0,0.0,87,0.00,,,0.00,0,Wunderground v.1.15,2013-03-28 10:12:00,
2013-03-28 04:20:00,28.3,25.2,30.02,SE,140,0.0,0.0,88,0.00,,,0.00,0,Wunderground v.1.15,2013-03-28 10:20:00,
2013-03-28 04:26:00,28.4,25.6,30.02,SE,140,0.0,0.0,89,0.00,,,0.00,0,Wunderground v.1.15,2013-03-28 10:26:00,
2013-03-28 04:32:00,28.2,25.1,30.02,SE,140,0.0,0.0,88,0.00,,,0.00,0,Wunderground v.1.15,2013-03-28 10:32:00,
2013-03-28 04:40:00,28.0,24.9,30.02,East,88,0.0,4.0,88,0.00,,,0.00,0,Wunderground v.1.15,2013-03-28 10:40:00,
2013-03-28 04:46:00,28.6,26.0,30.02,East,90,3.0,6.0,90,0.00,,,0.00,0,Wunderground v.1.15,2013-03-28 10:46:00,
2013-03-28 04:54:00,29.5,26.9,30.02,SE,126,5.0,5.0,90,0.00,,,0.00,0,Wunderground v.1.15,2013-03-28 10:54:00,
2013-03-28 05:00:00,29.6,26.8,30.02,SE,135,5.0,5.0,89,0.00,,,0.00,0,Wunderground v.1.15,2013-03-28 11:00:00,
2013-03-28 05:06:00,29.4,26.3,30.02,SE,126,4.0,5.0,88,0.00,,,0.00,0,Wunderground v.1.15,2013-03-28 11:06:00,
2013-03-28 05:12:00,29.3,25.9,30.02,SE,125,4.0,4.0,87,0.00,,,0.00,0,Wunderground v.1.15,2013-03-28 11:12:00,
2013-03-28 05:18:00,29.0,25.6,30.02,SE,125,4.0,5.0,87,0.00,,,0.00,0,Wunderground v.1.15,2013-03-28 11:18:00,
2013-03-28 05:24:00,28.7,25.0,30.02,SE,125,3.0,4.0,86,0.00,,,0.00,0,Wunderground v.1.15,2013-03-28 11:24:00,
2013-03-28 05:30:00,28.3,24.6,30.02,SE,125,3.0,3.0,86,0.00,,,0.00,0,Wunderground v.1.15,2013-03-28 11:30:00,
2013-03-28 05:36:00,28.0,24.4,30.02,SE,125,1.0,3.0,86,0.00,,,0.00,0,Wunderground v.1.15,2013-03-28 11:36:00,
2013-03-28 05:42:00,27.8,24.2,30.02,SE,125,0.0,0.0,86,0.00,,,0.00,0,Wunderground v.1.15,2013-03-28 11:42:00,
2013-03-28 05:48:00,27.5,23.6,30.02,SE,125,0.0,4.0,85,0.00,,,0.00,0,Wunderground v.1.15,2013-03-28 11:48:00,
2013-03-28 05:56:00,27.3,23.9,30.02,SE,125,3.0,4.0,87,0.00,,,0.00,0,Wunderground v.1.15,2013-03-28 11:56:00,
2013-03-28 06:04:00,27.6,24.8,30.02,SE,126,4.0,4.0,89,0.00,,,0.00,0,Wunderground v.1.15,2013-03-28 12:04:00,
2013-03-28 06:10:00,27.5,24.4,30.02,SE,126,2.0,2.0,88,0.00,,,0.00,0,Wunderground v.1.15,2013-03-28 12:10:00,
2013-03-28 06:16:00,27.4,24.3,30.02,SE,126,0.0,2.0,88,0.00,,,0.00,0,Wunderground v.1.15,2013-03-28 12:16:00,
2013-03-28 06:22:00,27.3,23.9,30.02,SE,126,0.0,0.0,87,0.00,,,0.00,0,Wunderground v.1.15,2013-03-28 12:22:00,
2013-03-28 06:34:00,27.2,24.4,30.03,SE,126,0.0,0.0,89,0.00,,,0.00,0,Wunderground v.1.15,2013-03-28 12:34:00,
2013-03-28 06:40:00,27.5,25.0,30.03,SE,126,0.0,0.0,90,0.00,,,0.00,0,Wunderground v.1.15,2013-03-28 12:40:00,
2013-03-28 06:46:00,27.6,25.1,30.03,SE,126,0.0,0.0,90,0.00,,,0.00,0,Wunderground v.1.15,2013-03-28 12:46:00,
2013-03-28 06:52:00,27.4,24.6,30.03,SE,126,0.0,0.0,89,0.00,,,0.00,0,Wunderground v.1.15,2013-03-28 12:52:00,
2013-03-28 06:58:00,27.4,24.6,30.03,SE,126,0.0,0.0,89,0.00,,,0.00,0,Wunderground v.1.15,2013-03-28 12:58:00,
2013-03-28 07:04:00,27.2,24.4,30.03,SE,126,0.0,0.0,89,0.00,,,0.00,0,Wunderground v.1.15,2013-03-28 13:04:00,
2013-03-28 07:10:00,26.8,23.7,30.04,SE,126,0.0,0.0,88,0.00,,,0.00,0,Wunderground v.1.15,2013-03-28 13:10:00,
2013-03-28 07:16:00,26.5,23.4,30.03,SE,126,0.0,0.0,88,0.00,,,0.00,5,Wunderground v.1.15,2013-03-28 13:16:00,
2013-03-28 07:22:00,26.3,23.2,30.03,SE,126,0.0,0.0,88,0.00,,,0.00,7,Wunderground v.1.15,2013-03-28 13:22:00,
2013-03-28 07:28:00,26.1,23.0,30.03,SE,126,0.0,0.0,88,0.00,,,0.00,12,Wunderground v.1.15,2013-03-28 13:28:00,
2013-03-28 07:36:00,26.0,23.2,30.03,SE,126,0.0,0.0,89,0.00,,,0.00,19,Wunderground v.1.15,2013-03-28 13:36:00,
2013-03-28 07:42:00,26.1,23.6,30.03,SE,126,0.0,3.0,90,0.00,,,0.00,23,Wunderground v.1.15,2013-03-28 13:42:00,
2013-03-28 07:48:00,26.6,24.3,30.04,SE,126,2.0,3.0,91,0.00,,,0.00,28,Wunderground v.1.15,2013-03-28 13:48:00,
2013-03-28 07:54:00,27.4,25.4,30.04,SE,126,3.0,4.0,92,0.00,,,0.00,37,Wunderground v.1.15,2013-03-28 13:54:00,
2013-03-28 08:00:00,28.1,26.1,30.04,SE,126,3.0,4.0,92,0.00,,,0.00,70,Wunderground v.1.15,2013-03-28 14:00:00,
2013-03-28 08:06:00,28.7,26.7,30.04,SE,126,3.0,4.0,92,0.00,,,0.00,100,Wunderground v.1.15,2013-03-28 14:06:00,
2013-03-28 08:14:00,29.2,27.2,30.04,SE,126,3.0,4.0,92,0.00,,,0.00,139,Wunderground v.1.15,2013-03-28 14:14:00,
2013-03-28 08:20:00,30.3,28.5,30.04,SE,126,3.0,3.0,93,0.00,,,0.00,95,Wunderground v.1.15,2013-03-28 14:20:00,
2013-03-28 08:30:00,31.5,29.4,30.03,SE,126,2.0,2.0,92,0.00,,,0.00,144,Wunderground v.1.15,2013-03-28 14:30:00,
2013-03-28 08:36:00,32.0,29.9,30.04,SE,126,0.0,2.0,92,0.00,,,0.00,120,Wunderground v.1.15,2013-03-28 14:36:00,
2013-03-28 08:42:00,32.4,30.1,30.03,SE,126,0.0,0.0,91,0.00,,,0.00,127,Wunderground v.1.15,2013-03-28 14:42:00,
2013-03-28 08:48:00,32.9,30.6,30.03,SE,126,0.0,0.0,91,0.00,,,0.00,155,Wunderground v.1.15,2013-03-28 14:48:00,
2013-03-28 08:54:00,33.5,31.2,30.03,SE,126,0.0,0.0,91,0.00,,,0.00,178,Wunderground v.1.15,2013-03-28 14:54:00,
2013-03-28 09:00:00,34.5,32.4,30.03,ESE,120,1.0,4.0,92,0.00,,,0.00,237,Wunderground v.1.15,2013-03-28 15:00:00,
2013-03-28 09:06:00,35.8,33.2,30.03,ESE,122,4.0,5.0,90,0.00,,,0.00,272,Wunderground v.1.15,2013-03-28 15:06:00,
2013-03-28 09:12:00,37.3,34.1,30.03,ENE,70,4.0,5.0,88,0.00,,,0.00,262,Wunderground v.1.15,2013-03-28 15:12:00,
2013-03-28 09:18:00,39.2,34.2,30.02,East,96,4.0,5.0,82,0.00,,,0.00,241,Wunderground v.1.15,2013-03-28 15:18:00,
2013-03-28 09:24:00,40.8,33.8,30.02,East,92,5.0,7.0,76,0.00,,,0.00,304,Wunderground v.1.15,2013-03-28 15:24:00,
2013-03-28 09:32:00,42.9,34.1,30.02,ESE,115,5.0,7.0,71,0.00,,,0.00,316,Wunderground v.1.15,2013-03-28 15:32:00,
2013-03-28 09:40:00,44.4,33.4,30.02,ESE,121,6.0,9.0,65,0.00,,,0.00,357,Wunderground v.1.15,2013-03-28 15:40:00,
2013-03-28 09:48:00,45.5,33.2,30.02,ESE,110,7.0,11.0,62,0.00,,,0.00,383,Wunderground v.1.15,2013-03-28 15:48:00,
2013-03-28 09:54:00,46.4,33.3,30.02,East,96,7.0,8.0,60,0.00,,,0.00,427,Wunderground v.1.15,2013-03-28 15:54:00,
2013-03-28 10:00:00,47.2,32.7,30.02,East,85,8.0,8.0,57,0.00,,,0.00,454,Wunderground v.1.15,2013-03-28 16:00:00,
2013-03-28 10:06:00,48.0,32.6,30.02,East,92,7.0,9.0,55,0.00,,,0.00,478,Wunderground v.1.15,2013-03-28 16:06:00,
2013-03-28 10:12:00,48.7,32.3,30.02,ESE,104,6.0,9.0,53,0.00,,,0.00,404,Wunderground v.1.15,2013-03-28 16:12:00,
2013-03-28 10:18:00,49.3,31.9,30.02,East,96,5.0,9.0,51,0.00,,,0.00,441,Wunderground v.1.15,2013-03-28 16:18:00,
2013-03-28 10:24:00,49.8,31.9,30.02,ESE,119,5.0,6.0,50,0.00,,,0.00,450,Wunderground v.1.15,2013-03-28 16:24:00,
2013-03-28 10:30:00,50.3,32.4,30.02,ESE,107,5.0,7.0,50,0.00,,,0.00,563,Wunderground v.1.15,2013-03-28 16:30:00,
2013-03-28 10:36:00,50.9,31.9,30.02,ENE,74,5.0,7.0,48,0.00,,,0.00,515,Wunderground v.1.15,2013-03-28 16:36:00,
2013-03-28 10:42:00,51.3,31.7,30.02,ESE,109,6.0,10.0,47,0.00,,,0.00,497,Wunderground v.1.15,2013-03-28 16:42:00,
2013-03-28 10:50:00,51.9,32.3,30.02,ESE,111,6.0,6.0,47,0.00,,,0.00,573,Wunderground v.1.15,2013-03-28 16:50:00,
2013-03-28 10:56:00,52.2,32.0,30.02,East,89,6.0,12.0,46,0.00,,,0.00,610,Wunderground v.1.15,2013-03-28 16:56:00,
2013-03-28 11:02:00,52.4,32.7,30.02,ENE,72,7.0,7.0,47,0.00,,,0.00,629,Wunderground v.1.15,2013-03-28 17:02:00,
2013-03-28 11:08:00,52.7,31.4,30.02,SSE,161,7.0,8.0,44,0.00,,,0.00,638,Wunderground v.1.15,2013-03-28 17:08:00,
2013-03-28 11:14:00,53.1,32.3,30.02,East,94,6.0,10.0,45,0.00,,,0.00,645,Wunderground v.1.15,2013-03-28 17:14:00,
2013-03-28 11:24:00,54.2,32.2,30.02,ESE,102,6.0,6.0,43,0.00,,,0.00,800,Wunderground v.1.15,2013-03-28 17:24:00,
2013-03-28 11:30:00,55.1,31.8,30.01,ESE,115,4.0,5.0,41,0.00,,,0.00,867,Wunderground v.1.15,2013-03-28 17:30:00,
2013-03-28 11:36:00,55.7,31.7,30.01,ESE,107,4.0,15.0,40,0.00,,,0.00,867,Wunderground v.1.15,2013-03-28 17:36:00,
2013-03-28 11:42:00,56.0,31.4,30.02,South,181,7.0,12.0,39,0.00,,,0.00,867,Wunderground v.1.15,2013-03-28 17:42:00,
2013-03-28 11:48:00,55.7,30.5,30.02,South,186,9.0,12.0,38,0.00,,,0.00,645,Wunderground v.1.15,2013-03-28 17:48:00,
2013-03-28 11:56:00,55.2,30.0,30.01,ESE,117,9.0,9.0,38,0.00,,,0.00,617,Wunderground v.1.15,2013-03-28 17:56:00,
2013-03-28 12:02:00,55.1,30.6,30.01,SE,126,9.0,9.0,39,0.00,,,0.00,707,Wunderground v.1.15,2013-03-28 18:02:00,
2013-03-28 12:10:00,55.8,30.5,30.01,SSE,165,7.0,10.0,38,0.00,,,0.00,969,Wunderground v.1.15,2013-03-28 18:10:00,
2013-03-28 12:16:00,56.3,30.3,30.01,SSE,154,8.0,11.0,37,0.00,,,0.00,619,Wunderground v.1.15,2013-03-28 18:16:00,
2013-03-28 12:24:00,56.5,29.1,30.00,SE,144,10.0,16.0,35,0.00,,,0.00,499,Wunderground v.1.15,2013-03-28 18:24:00,
2013-03-28 12:30:00,56.0,28.7,30.00,South,171,10.0,10.0,35,0.00,,,0.00,376,Wunderground v.1.15,2013-03-28 18:30:00,
2013-03-28 12:36:00,55.3,29.4,30.00,SSE,157,9.0,13.0,37,0.00,,,0.00,413,Wunderground v.1.15,2013-03-28 18:36:00,
2013-03-28 12:42:00,54.9,29.7,30.00,SSE,149,8.0,12.0,38,0.00,,,0.00,570,Wunderground v.1.15,2013-03-28 18:42:00,
2013-03-28 12:48:00,55.0,30.5,30.00,SSE,167,7.0,12.0,39,0.00,,,0.00,508,Wunderground v.1.15,2013-03-28 18:48:00,
2013-03-28 12:54:00,55.1,28.6,30.00,South,175,7.0,7.0,36,0.00,,,0.00,448,Wunderground v.1.15,2013-03-28 18:54:00,
2013-03-28 13:00:00,55.4,28.9,29.99,SSE,158,8.0,9.0,36,0.00,,,0.00,383,Wunderground v.1.15,2013-03-28 19:00:00,
2013-03-28 13:08:00,55.7,27.7,30.00,SSE,159,9.0,12.0,34,0.00,,,0.00,455,Wunderground v.1.15,2013-03-28 19:08:00,
2013-03-28 13:14:00,55.7,27.7,29.99,SSE,160,10.0,11.0,34,0.00,,,0.00,529,Wunderground v.1.15,2013-03-28 19:14:00,
2013-03-28 13:20:00,56.0,27.3,30.00,East,99,11.0,11.0,33,0.00,,,0.00,680,Wunderground v.1.15,2013-03-28 19:20:00,
2013-03-28 13:26:00,56.5,27.7,30.00,SSW,192,10.0,11.0,33,0.00,,,0.00,654,Wunderground v.1.15,2013-03-28 19:26:00,
2013-03-28 13:32:00,56.4,27.6,29.99,SE,136,10.0,10.0,33,0.00,,,0.00,380,Wunderground v.1.15,2013-03-28 19:32:00,
2013-03-28 13:38:00,55.7,29.1,29.99,South,188,10.0,15.0,36,0.00,,,0.00,281,Wunderground v.1.15,2013-03-28 19:38:00,
2013-03-28 13:44:00,54.8,29.7,29.99,SSE,163,9.0,10.0,38,0.00,,,0.00,265,Wunderground v.1.15,2013-03-28 19:44:00,
2013-03-28 13:50:00,54.0,28.9,29.99,South,175,8.0,8.0,38,0.00,,,0.00,272,Wunderground v.1.15,2013-03-28 19:50:00,
2013-03-28 13:56:00,54.3,29.8,29.99,South,191,7.0,9.0,39,0.00,,,0.00,907,Wunderground v.1.15,2013-03-28 19:56:00,
2013-03-28 14:06:00,57.1,29.7,29.99,SSW,194,9.0,13.0,35,0.00,,,0.00,842,Wunderground v.1.15,2013-03-28 20:06:00,
2013-03-28 14:14:00,58.5,28.7,29.99,SSE,150,9.0,12.0,32,0.00,,,0.00,782,Wunderground v.1.15,2013-03-28 20:14:00,
2013-03-28 14:20:00,58.9,29.1,29.99,SSW,198,9.0,12.0,32,0.00,,,0.00,564,Wunderground v.1.15,2013-03-28 20:20:00,
2013-03-28 14:26:00,58.7,28.9,29.99,East,100,9.0,12.0,32,0.00,,,0.00,840,Wunderground v.1.15,2013-03-28 20:26:00,
2013-03-28 14:32:00,59.3,29.4,29.99,East,96,7.0,10.0,32,0.00,,,0.00,737,Wunderground v.1.15,2013-03-28 20:32:00,
2013-03-28 14:40:00,59.2,28.5,29.99,ESE,109,9.0,13.0,31,0.00,,,0.00,244,Wunderground v.1.15,2013-03-28 20:40:00,
2013-03-28 14:48:00,57.6,28.7,29.99,SSE,157,9.0,11.0,33,0.00,,,0.00,636,Wunderground v.1.15,2013-03-28 20:48:00,
2013-03-28 14:54:00,57.2,29.1,29.99,SE,132,10.0,12.0,34,0.00,,,0.00,424,Wunderground v.1.15,2013-03-28 20:54:00,
2013-03-28 15:00:00,56.5,29.1,29.99,SSE,159,11.0,12.0,35,0.00,,,0.00,381,Wunderground v.1.15,2013-03-28 21:00:00,
2013-03-28 15:06:00,55.8,29.2,29.99,South,169,11.0,12.0,36,0.00,,,0.00,345,Wunderground v.1.15,2013-03-28 21:06:00,
2013-03-28 15:12:00,55.4,29.5,29.99,SSE,167,11.0,11.0,37,0.00,,,0.00,485,Wunderground v.1.15,2013-03-28 21:12:00,
2013-03-28 15:18:00,55.5,30.3,29.98,SSW,192,11.0,14.0,38,0.00,,,0.00,571,Wunderground v.1.15,2013-03-28 21:18:00,
2013-03-28 15:24:00,56.0,30.7,29.98,SSE,159,11.0,14.0,38,0.00,,,0.00,454,Wunderground v.1.15,2013-03-28 21:24:00,
2013-03-28 15:32:00,57.0,30.3,29.98,SSE,167,11.0,11.0,36,0.00,,,0.00,422,Wunderground v.1.15,2013-03-28 21:32:00,
2013-03-28 15:38:00,57.0,31.0,29.98,SSE,163,11.0,13.0,37,0.00,,,0.00,406,Wunderground v.1.15,2013-03-28 21:38:00,
2013-03-28 15:44:00,56.7,31.4,29.98,South,175,10.0,12.0,38,0.00,,,0.00,707,Wunderground v.1.15,2013-03-28 21:44:00,
2013-03-28 15:50:00,57.2,29.8,29.98,SSE,152,8.0,12.0,35,0.00,,,0.00,346,Wunderground v.1.15,2013-03-28 21:50:00,
2013-03-28 15:56:00,57.2,29.8,29.97,ESE,108,7.0,10.0,35,0.00,,,0.00,315,Wunderground v.1.15,2013-03-28 21:56:00,
2013-03-28 16:02:00,57.3,29.9,29.97,East,99,5.0,6.0,35,0.00,,,0.00,744,Wunderground v.1.15,2013-03-28 22:02:00,
2013-03-28 16:08:00,58.0,29.8,29.97,East,80,4.0,6.0,34,0.00,,,0.00,677,Wunderground v.1.15,2013-03-28 22:08:00,
2013-03-28 16:14:00,58.8,29.7,29.97,South,173,3.0,5.0,33,0.00,,,0.00,679,Wunderground v.1.15,2013-03-28 22:14:00,
2013-03-28 16:22:00,59.8,29.9,29.98,SW,215,2.0,5.0,32,0.00,,,0.00,236,Wunderground v.1.15,2013-03-28 22:22:00,
2013-03-28 16:30:00,59.4,30.3,29.97,South,182,5.0,5.0,33,0.00,,,0.00,207,Wunderground v.1.15,2013-03-28 22:30:00,
2013-03-28 16:36:00,58.3,31.4,29.98,SSE,161,8.0,16.0,36,0.00,,,0.00,181,Wunderground v.1.15,2013-03-28 22:36:00,
2013-03-28 16:42:00,56.2,34.0,29.98,SSW,197,12.0,12.0,43,0.00,,,0.00,218,Wunderground v.1.15,2013-03-28 22:42:00,
2013-03-28 16:48:00,54.2,34.9,29.99,South,178,14.0,16.0,48,0.00,,,0.00,241,Wunderground v.1.15,2013-03-28 22:48:00,
2013-03-28 16:54:00,53.0,33.8,29.99,South,171,13.0,15.0,48,0.00,,,0.00,399,Wunderground v.1.15,2013-03-28 22:54:00,
2013-03-28 17:00:00,53.0,32.2,29.99,South,189,15.0,17.0,45,0.00,,,0.00,628,Wunderground v.1.15,2013-03-28 23:00:00,
2013-03-28 17:06:00,52.7,32.5,29.99,South,191,18.0,20.0,46,0.00,,,0.00,209,Wunderground v.1.15,2013-03-28 23:06:00,
2013-03-28 17:12:00,51.7,32.6,29.99,SSW,205,16.0,19.0,48,0.00,,,0.00,236,Wunderground v.1.15,2013-03-28 23:12:00,
2013-03-28 17:18:00,51.2,33.2,29.98,SSW,202,12.0,19.0,50,0.00,,,0.00,271,Wunderground v.1.15,2013-03-28 23:18:00,
2013-03-28 17:24:00,51.4,32.9,29.98,SW,222,10.0,11.0,49,0.00,,,0.00,281,Wunderground v.1.15,2013-03-28 23:24:00,
2013-03-28 17:30:00,51.8,32.7,29.98,SSW,196,9.0,9.0,48,0.00,,,0.00,206,Wunderground v.1.15,2013-03-28 23:30:00,
2013-03-28 17:36:00,52.1,32.5,29.98,SSW,205,7.0,10.0,47,0.00,,,0.00,183,Wunderground v.1.15,2013-03-28 23:36:00,
2013-03-28 17:42:00,52.4,32.7,29.97,SW,215,5.0,6.0,47,0.00,,,0.00,214,Wunderground v.1.15,2013-03-28 23:42:00,
2013-03-28 17:48:00,52.6,32.4,29.97,SSW,213,3.0,6.0,46,0.00,,,0.00,204,Wunderground v.1.15,2013-03-28 23:48:00,
2013-03-28 17:54:00,53.0,31.1,29.97,SSW,211,2.0,3.0,43,0.00,,,0.00,265,Wunderground v.1.15,2013-03-28 23:54:00,
2013-03-28 18:00:00,53.3,31.4,29.97,SSW,212,1.0,2.0,43,0.00,,,0.00,244,Wunderground v.1.15,2013-03-29 00:00:00,
2013-03-28 18:06:00,53.7,32.3,29.97,SSW,204,1.0,3.0,44,0.00,,,0.00,234,Wunderground v.1.15,2013-03-29 00:06:00,
2013-03-28 18:12:00,54.0,32.0,29.97,SSW,204,1.0,1.0,43,0.00,,,0.00,151,Wunderground v.1.15,2013-03-29 00:12:00,
2013-03-28 18:18:00,54.2,31.6,29.97,SSW,204,0.0,1.0,42,0.00,,,0.00,125,Wunderground v.1.15,2013-03-29 00:18:00,
2013-03-28 18:24:00,54.2,31.6,29.97,SSW,204,0.0,0.0,42,0.00,,,0.00,120,Wunderground v.1.15,2013-03-29 00:24:00,
2013-03-28 18:32:00,54.2,31.6,29.97,South,187,1.0,1.0,42,0.00,,,0.00,105,Wunderground v.1.15,2013-03-29 00:32:00,
2013-03-28 18:40:00,54.1,31.5,29.97,SSE,164,1.0,1.0,42,0.00,,,0.00,105,Wunderground v.1.15,2013-03-29 00:40:00,
2013-03-28 18:48:00,53.9,31.3,29.97,ESE,109,2.0,5.0,42,0.00,,,0.00,105,Wunderground v.1.15,2013-03-29 00:48:00,
2013-03-28 18:58:00,53.7,31.7,29.97,SE,128,1.0,1.0,43,0.00,,,0.00,153,Wunderground v.1.15,2013-03-29 00:58:00,
2013-03-28 19:04:00,53.7,31.7,29.98,SE,136,1.0,2.0,43,0.00,,,0.00,104,Wunderground v.1.15,2013-03-29 01:04:00,
2013-03-28 19:10:00,53.7,31.7,29.97,SE,137,1.0,1.0,43,0.00,,,0.00,84,Wunderground v.1.15,2013-03-29 01:10:00,
2013-03-28 19:16:00,53.6,31.6,29.98,SE,137,0.0,1.0,43,0.00,,,0.00,62,Wunderground v.1.15,2013-03-29 01:16:00,
2013-03-28 19:22:00,53.3,31.4,29.98,SE,144,1.0,2.0,43,0.00,,,0.00,40,Wunderground v.1.15,2013-03-29 01:22:00,
2013-03-28 19:28:00,52.9,31.6,29.99,SSE,163,2.0,4.0,44,0.00,,,0.00,32,Wunderground v.1.15,2013-03-29 01:28:00,
2013-03-28 19:36:00,51.7,33.1,29.99,South,191,8.0,15.0,49,0.00,,,0.00,19,Wunderground v.1.15,2013-03-29 01:36:00,
2013-03-28 19:42:00,50.4,33.9,29.99,SSW,199,11.0,11.0,53,0.00,,,0.00,14,Wunderground v.1.15,2013-03-29 01:42:00,
2013-03-28 19:50:00,48.5,33.9,30.00,SSW,198,10.0,12.0,57,0.00,,,0.00,5,Wunderground v.1.15,2013-03-29 01:50:00,
2013-03-28 19:56:00,47.5,33.9,30.01,SSW,206,9.0,12.0,59,0.00,,,0.00,0,Wunderground v.1.15,2013-03-29 01:56:00,
2013-03-28 20:02:00,46.9,33.7,30.01,SW,226,8.0,8.0,60,0.00,,,0.00,0,Wunderground v.1.15,2013-03-29 02:02:00,
2013-03-28 20:08:00,46.3,33.6,30.01,SW,236,7.0,8.0,61,0.00,,,0.00,0,Wunderground v.1.15,2013-03-29 02:08:00,
2013-03-28 20:16:00,45.9,33.6,30.01,West,262,4.0,6.0,62,0.00,,,0.00,0,Wunderground v.1.15,2013-03-29 02:16:00,
2013-03-28 20:22:00,45.3,32.6,30.01,West,263,3.0,4.0,61,0.00,,,0.00,0,Wunderground v.1.15,2013-03-29 02:22:00,
2013-03-28 20:28:00,44.4,32.6,30.01,NW,305,3.0,4.0,63,0.00,,,0.00,0,Wunderground v.1.15,2013-03-29 02:28:00,
2013-03-28 20:34:00,43.7,31.9,30.01,NW,311,3.0,5.0,63,0.00,,,0.00,0,Wunderground v.1.15,2013-03-29 02:34:00,
2013-03-28 20:40:00,42.9,32.7,30.02,NW,317,4.0,4.0,67,0.00,,,0.00,0,Wunderground v.1.15,2013-03-29 02:40:00,
2013-03-28 20:46:00,42.4,32.9,30.02,WNW,299,4.0,4.0,69,0.00,,,0.00,0,Wunderground v.1.15,2013-03-29 02:46:00,
2013-03-28 20:52:00,42.3,33.2,30.03,WNW,299,2.0,3.0,70,0.00,,,0.00,0,Wunderground v.1.15,2013-03-29 02:52:00,
2013-03-28 20:58:00,42.2,33.5,30.02,WNW,299,0.0,3.0,71,0.00,,,0.00,0,Wunderground v.1.15,2013-03-29 02:58:00,
2013-03-28 21:08:00,41.9,32.5,30.03,WNW,299,0.0,0.0,69,0.00,,,0.00,0,Wunderground v.1.15,2013-03-29 03:08:00,
2013-03-28 21:14:00,41.7,31.9,30.03,WNW,299,0.0,0.0,68,0.00,,,0.00,0,Wunderground v.1.15,2013-03-29 03:14:00,
2013-03-28 21:20:00,41.4,31.6,30.03,WNW,299,0.0,0.0,68,0.00,,,0.00,0,Wunderground v.1.15,2013-03-29 03:20:00,
2013-03-28 21:26:00,41.0,32.3,30.03,WNW,299,0.0,0.0,71,0.00,,,0.00,0,Wunderground v.1.15,2013-03-29 03:26:00,
2013-03-28 21:32:00,40.7,32.4,30.03,WNW,299,0.0,0.0,72,0.00,,,0.00,0,Wunderground v.1.15,2013-03-29 03:32:00,
2013-03-28 21:38:00,40.4,32.1,30.03,WNW,299,0.0,0.0,72,0.00,,,0.00,0,Wunderground v.1.15,2013-03-29 03:38:00,
2013-03-28 21:46:00,40.1,32.5,30.04,WNW,298,1.0,3.0,74,0.00,,,0.00,0,Wunderground v.1.15,2013-03-29 03:46:00,
2013-03-28 21:52:00,39.9,32.6,30.04,WNW,298,2.0,2.0,75,0.00,,,0.00,0,Wunderground v.1.15,2013-03-29 03:52:00,
2013-03-28 22:00:00,39.7,32.4,30.05,WNW,298,0.0,0.0,75,0.00,,,0.00,0,Wunderground v.1.15,2013-03-29 04:00:00,
2013-03-28 22:02:00,39.7,32.1,30.05,WNW,298,0.0,0.0,74,0.00,,,0.00,0,Wunderground v.1.15,2013-03-29 04:02:00,
2013-03-28 22:06:00,39.5,31.9,30.05,WNW,298,0.0,0.0,74,0.00,,,0.00,0,Wunderground v.1.15,2013-03-29 04:06:00,
2013-03-28 22:10:00,39.3,32.4,30.05,WNW,298,0.0,0.0,76,0.00,,,0.00,0,Wunderground v.1.15,2013-03-29 04:10:00,
2013-03-28 22:16:00,39.1,32.5,30.05,WNW,298,0.0,0.0,77,0.00,,,0.00,0,Wunderground v.1.15,2013-03-29 04:16:00,
2013-03-28 22:22:00,38.9,32.6,30.05,WNW,298,0.0,0.0,78,0.00,,,0.00,0,Wunderground v.1.15,2013-03-29 04:22:00,
2013-03-28 22:28:00,38.9,32.9,30.06,WNW,298,0.0,0.0,79,0.00,,,0.00,0,Wunderground v.1.15,2013-03-29 04:28:00,
2013-03-28 22:34:00,38.7,31.8,30.05,WNW,298,1.0,4.0,76,0.00,,,0.00,0,Wunderground v.1.15,2013-03-29 04:34:00,
2013-03-28 22:40:00,38.3,32.0,30.05,WNW,298,1.0,1.0,78,0.00,,,0.00,0,Wunderground v.1.15,2013-03-29 04:40:00,
2013-03-28 22:46:00,38.1,32.2,30.05,WNW,298,0.0,1.0,79,0.00,,,0.00,0,Wunderground v.1.15,2013-03-29 04:46:00,
2013-03-28 22:52:00,38.0,32.4,30.06,WNW,296,1.0,2.0,80,0.00,,,0.00,0,Wunderground v.1.15,2013-03-29 04:52:00,
2013-03-28 22:58:00,37.6,31.7,30.06,South,175,1.0,2.0,79,0.00,,,0.00,0,Wunderground v.1.15,2013-03-29 04:58:00,
2013-03-28 23:04:00,37.2,31.3,30.06,South,175,0.0,1.0,79,0.00,,,0.00,0,Wunderground v.1.15,2013-03-29 05:04:00,
2013-03-28 23:12:00,36.9,31.3,30.07,South,175,0.0,0.0,80,0.00,,,0.00,0,Wunderground v.1.15,2013-03-29 05:12:00,
2013-03-28 23:18:00,36.8,31.5,30.07,South,175,0.0,0.0,81,0.00,,,0.00,0,Wunderground v.1.15,2013-03-29 05:18:00,
2013-03-28 23:24:00,36.7,31.4,30.07,South,175,0.0,0.0,81,0.00,,,0.00,0,Wunderground v.1.15,2013-03-29 05:24:00,
2013-03-28 23:36:00,36.4,31.1,30.07,South,175,0.0,0.0,81,0.00,,,0.00,0,Wunderground v.1.15,2013-03-29 05:36:00,
2013-03-28 23:42:00,36.3,31.0,30.07,South,175,0.0,0.0,81,0.00,,,0.00,0,Wunderground v.1.15,2013-03-29 05:42:00,
2013-03-28 23:48:00,36.1,30.8,30.07,South,175,0.0,0.0,81,0.00,,,0.00,0,Wunderground v.1.15,2013-03-29 05:48:00,
2013-03-28 23:54:00,36.0,31.0,30.07,South,175,0.0,0.0,82,0.00,,,0.00,0,Wunderground v.1.15,2013-03-29 05:54:00,